Time;durP1;ratioP1;P1;durP2;ratioP2;P2;SDS_P1;SDS_P2;PMS_P1;PMS_P2;Temp;Humidity;BMP_temperature;BMP_pressure;BME280_temperature;BME280_humidity;BME280_pressure;Samples;Min_cycle;Max_cycle;Signal;HPM_P1;HPM_P2
2022/11/27 00:01:24;;;;;;;4.87;2.03;;;7.90;99.90;;;;;;5099982;28;20180;-68
2022/11/27 00:03:53;;;;;;;4.97;1.90;;;7.90;99.90;;;;;;5099677;28;20208;-68
2022/11/27 00:06:20;;;;;;;3.67;2.07;;;7.90;99.90;;;;;;5062614;28;20180;-68
2022/11/27 00:08:49;;;;;;;4.17;1.80;;;7.90;99.90;;;;;;5096272;28;20191;-68
2022/11/27 00:11:20;;;;;;;3.67;1.77;;;7.90;99.90;;;;;;5099032;28;20188;-68
2022/11/27 00:13:49;;;;;;;5.13;2.03;;;7.90;99.90;;;;;;5095008;28;20199;-69
2022/11/27 00:16:16;;;;;;;3.30;1.83;;;7.80;99.90;;;;;;5088418;28;20180;-68
2022/11/27 00:18:42;;;;;;;5.83;2.10;;;7.90;99.90;;;;;;5093354;28;20271;-68
2022/11/27 00:21:15;;;;;;;4.73;2.00;;;7.80;99.90;;;;;;5096149;28;20255;-68
2022/11/27 00:23:43;;;;;;;4.13;1.90;;;7.80;99.90;;;;;;5061381;28;20215;-69
2022/11/27 00:26:10;;;;;;;2.77;1.90;;;7.80;99.90;;;;;;5093481;28;20267;-69
2022/11/27 00:28:38;;;;;;;3.77;1.80;;;7.80;99.90;;;;;;5090668;28;20264;-69
2022/11/27 00:31:15;;;;;;;4.77;1.83;;;7.80;99.90;;;;;;5093812;28;20209;-69
2022/11/27 00:33:40;;;;;;;5.53;1.80;;;7.70;99.90;;;;;;5059364;28;20203;-69
2022/11/27 00:36:10;;;;;;;3.50;1.93;;;7.70;99.90;;;;;;5094065;28;20184;-68
2022/11/27 00:38:37;;;;;;;3.67;1.63;;;7.70;99.90;;;;;;5093725;28;20181;-68
2022/11/27 00:41:06;;;;;;;4.43;1.90;;;7.80;99.90;;;;;;5096312;28;20192;-68
2022/11/27 00:43:33;;;;;;;3.23;2.37;;;7.70;99.90;;;;;;5060493;28;20195;-69
2022/11/27 00:45:59;;;;;;;3.23;1.67;;;7.70;99.90;;;;;;5092933;28;20170;-68
2022/11/27 00:48:24;;;;;;;2.70;1.53;;;7.70;99.90;;;;;;5074382;28;20270;-68
2022/11/27 00:50:50;;;;;;;3.77;1.67;;;7.70;99.90;;;;;;5097943;28;20192;-68
2022/11/27 00:53:20;;;;;;;3.47;1.70;;;7.60;99.90;;;;;;5100924;28;20215;-69
2022/11/27 00:55:50;;;;;;;2.93;1.60;;;7.70;99.90;;;;;;5096684;28;20180;-68
2022/11/27 00:58:16;;;;;;;2.50;1.50;;;7.60;99.90;;;;;;5095241;28;20185;-69
2022/11/27 01:00:41;;;;;;;4.57;1.93;;;7.60;99.90;;;;;;5091921;28;20203;-68
2022/11/27 01:03:07;;;;;;;8.53;2.37;;;7.60;99.90;;;;;;5095348;28;20200;-68
2022/11/27 01:05:35;;;;;;;5.33;2.20;;;7.60;99.90;;;;;;5078265;28;20245;-68
2022/11/27 01:08:03;;;;;;;3.87;1.70;;;7.60;99.90;;;;;;5089873;28;20204;-68
2022/11/27 01:10:34;;;;;;;3.30;2.10;;;7.50;99.90;;;;;;5094196;28;20185;-69
2022/11/27 01:12:59;;;;;;;4.30;2.10;;;7.50;99.90;;;;;;5090954;28;20184;-70
2022/11/27 01:15:32;;;;;;;4.27;2.37;;;7.60;99.90;;;;;;5091955;28;20196;-68
2022/11/27 01:18:00;;;;;;;4.33;2.67;;;7.50;99.90;;;;;;5091971;28;20200;-68
2022/11/27 01:20:25;;;;;;;4.40;2.30;;;7.50;99.90;;;;;;5093266;28;20247;-68
2022/11/27 01:22:51;;;;;;;3.00;2.00;;;7.50;99.90;;;;;;5093170;28;20916;-69
2022/11/27 01:25:17;;;;;;;4.30;1.97;;;7.50;99.90;;;;;;5094780;28;20184;-68
2022/11/27 01:27:45;;;;;;;3.13;2.10;;;7.50;99.90;;;;;;5091188;28;20188;-68
2022/11/27 01:30:11;;;;;;;3.30;2.10;;;7.50;99.90;;;;;;5095938;28;20184;-68
2022/11/27 01:32:38;;;;;;;6.60;2.47;;;7.50;99.90;;;;;;5097683;28;20193;-68
2022/11/27 01:35:04;;;;;;;4.37;2.40;;;7.50;99.90;;;;;;5076487;28;20185;-69
2022/11/27 01:37:30;;;;;;;3.67;2.53;;;7.50;99.90;;;;;;5093444;28;20175;-69
2022/11/27 01:39:56;;;;;;;5.03;2.57;;;7.40;99.90;;;;;;5096951;28;20189;-68
2022/11/27 01:42:21;;;;;;;5.90;2.30;;;7.40;99.90;;;;;;5094120;28;20273;-68
2022/11/27 01:44:53;;;;;;;3.83;2.50;;;7.40;99.90;;;;;;5094177;28;20191;-68
2022/11/27 01:47:31;;;;;;;4.30;2.33;;;7.40;99.90;;;;;;5089483;28;20196;-68
2022/11/27 01:50:04;;;;;;;10.47;2.53;;;7.40;99.90;;;;;;5096257;28;20172;-68
2022/11/27 01:52:36;;;;;;;5.07;2.80;;;7.40;99.90;;;;;;5096335;28;20268;-67
2022/11/27 01:55:17;;;;;;;5.97;3.10;;;7.40;99.90;;;;;;5090335;28;20230;-67
2022/11/27 01:57:47;;;;;;;5.67;3.03;;;7.40;99.90;;;;;;5094316;28;20283;-68
2022/11/27 02:00:17;;;;;;;5.40;2.53;;;7.40;99.90;;;;;;5065658;28;20181;-68
2022/11/27 02:02:43;;;;;;;4.87;3.10;;;7.30;99.90;;;;;;5091564;28;20200;-68
2022/11/27 02:05:13;;;;;;;7.83;3.90;;;7.40;99.90;;;;;;5097994;28;20234;-68
2022/11/27 02:07:38;;;;;;;6.83;3.50;;;7.30;99.90;;;;;;5091503;28;20271;-68
2022/11/27 02:10:05;;;;;;;5.23;3.17;;;7.40;99.90;;;;;;5094007;28;20280;-68
2022/11/27 02:12:54;;;;;;;8.50;3.70;;;7.30;99.90;;;;;;5096851;28;20233;-68
2022/11/27 02:15:42;;;;;;;7.63;3.80;;;7.30;99.90;;;;;;5054827;28;20258;-67
2022/11/27 02:18:11;;;;;;;6.10;3.57;;;7.30;99.90;;;;;;5089997;28;20238;-67
2022/11/27 02:20:44;;;;;;;8.83;3.87;;;7.20;99.90;;;;;;5091232;28;20184;-68
2022/11/27 02:23:45;;;;;;;7.07;3.90;;;7.30;99.90;;;;;;5060783;28;20192;-69
2022/11/27 02:26:25;;;;;;;5.43;3.63;;;7.20;99.90;;;;;;5059193;28;20188;-68
2022/11/27 02:29:11;;;;;;;6.47;3.80;;;7.20;99.90;;;;;;5060325;28;20424;-68
2022/11/27 02:31:37;;;;;;;5.87;3.57;;;7.20;99.90;;;;;;5092636;28;20268;-68
2022/11/27 02:34:23;;;;;;;7.00;4.23;;;7.20;99.90;;;;;;5058599;28;20327;-69
2022/11/27 02:37:05;;;;;;;6.13;4.00;;;7.10;99.90;;;;;;5073052;28;20275;-68
2022/11/27 02:39:47;;;;;;;7.10;4.20;;;7.10;99.90;;;;;;5062114;28;20278;-68
2022/11/27 02:42:20;;;;;;;9.53;5.13;;;7.10;99.90;;;;;;5056463;28;20188;-68
2022/11/27 02:44:53;;;;;;;9.50;4.30;;;7.20;99.90;;;;;;5091268;28;20180;-68
2022/11/27 02:47:20;;;;;;;7.93;5.10;;;7.00;99.90;;;;;;5086764;28;20181;-69
2022/11/27 02:49:48;;;;;;;10.37;6.00;;;7.10;99.90;;;;;;5089514;28;20181;-68
2022/11/27 02:52:16;;;;;;;7.87;4.57;;;7.00;99.90;;;;;;5057724;28;20223;-68
2022/11/27 02:54:47;;;;;;;7.70;4.83;;;7.00;99.90;;;;;;5091390;28;20267;-68
2022/11/27 02:57:15;;;;;;;9.10;5.47;;;7.00;99.90;;;;;;5090734;28;20177;-68
2022/11/27 02:59:42;;;;;;;7.10;4.83;;;7.00;99.90;;;;;;5055203;28;20200;-69
2022/11/27 03:02:15;;;;;;;10.63;4.77;;;6.90;99.90;;;;;;5094562;28;20177;-70
2022/11/27 03:04:49;;;;;;;9.97;5.33;;;6.90;99.90;;;;;;5097272;28;20238;-68
2022/11/27 03:07:20;;;;;;;7.30;5.17;;;6.90;99.90;;;;;;5093811;28;20165;-69
2022/11/27 03:09:48;;;;;;;8.23;4.93;;;6.90;99.90;;;;;;5067663;28;20173;-68
2022/11/27 03:12:16;;;;;;;7.20;4.80;;;6.90;99.90;;;;;;5091531;28;20175;-68
2022/11/27 03:14:43;;;;;;;8.27;5.00;;;6.90;99.90;;;;;;5056755;28;20177;-68
2022/11/27 03:17:54;;;;;;;10.80;5.10;;;6.80;99.90;;;;;;5093766;28;20189;-70
2022/11/27 03:20:26;;;;;;;8.13;5.13;;;6.80;99.90;;;;;;5057542;28;20188;-69
2022/11/27 03:22:53;;;;;;;10.20;5.67;;;6.80;99.90;;;;;;5094386;28;20244;-68
2022/11/27 03:25:20;;;;;;;11.10;5.60;;;6.80;99.90;;;;;;5061277;28;20191;-68
2022/11/27 03:27:55;;;;;;;9.80;5.60;;;6.80;99.90;;;;;;5093784;28;20239;-68
2022/11/27 03:30:21;;;;;;;9.37;5.23;;;6.70;99.90;;;;;;5094344;28;20191;-68
2022/11/27 03:32:47;;;;;;;8.27;5.67;;;6.70;99.90;;;;;;5061972;28;20210;-68
2022/11/27 03:35:17;;;;;;;9.33;5.80;;;6.70;99.90;;;;;;5095151;28;20188;-68
2022/11/27 03:37:45;;;;;;;9.93;5.30;;;6.70;99.90;;;;;;5093044;28;20172;-68
2022/11/27 03:40:11;;;;;;;7.37;5.10;;;6.70;99.90;;;;;;5094075;28;20278;-69
2022/11/27 03:43:11;;;;;;;9.33;5.67;;;6.70;99.90;;;;;;5097695;28;20269;-68
2022/11/27 03:45:52;;;;;;;8.53;4.70;;;6.70;99.90;;;;;;5095128;28;20190;-69
2022/11/27 03:48:32;;;;;;;6.07;4.80;;;6.60;99.90;;;;;;5067423;28;20179;-68
2022/11/27 03:51:14;;;;;;;7.10;5.03;;;6.60;99.90;;;;;;5060690;28;20181;-68
2022/11/27 03:53:58;;;;;;;6.93;4.83;;;6.60;99.90;;;;;;5091755;28;20267;-69
2022/11/27 03:57:02;;;;;;;6.30;4.23;;;6.70;99.90;;;;;;5090113;28;20204;-68
2022/11/27 03:59:33;;;;;;;8.80;5.30;;;6.60;99.90;;;;;;5062015;28;20191;-68
2022/11/27 04:01:59;;;;;;;7.53;4.97;;;6.70;99.90;;;;;;5094457;28;20177;-68
2022/11/27 04:04:26;;;;;;;8.93;4.97;;;6.60;99.90;;;;;;5093613;28;20215;-67
2022/11/27 04:06:54;;;;;;;8.10;5.50;;;6.60;99.90;;;;;;5099320;28;20172;-69
2022/11/27 04:09:20;;;;;;;8.80;5.40;;;6.60;99.90;;;;;;5099583;28;20173;-68
2022/11/27 04:11:48;;;;;;;7.77;5.20;;;6.60;99.90;;;;;;5100641;28;20226;-70
2022/11/27 04:14:13;;;;;;;8.43;5.07;;;6.60;99.90;;;;;;5098837;28;20259;-69
2022/11/27 04:16:41;;;;;;;10.20;5.23;;;6.70;99.90;;;;;;5063884;28;20215;-68
2022/11/27 04:19:08;;;;;;;6.73;4.27;;;6.70;99.90;;;;;;5097538;28;20185;-68
2022/11/27 04:21:35;;;;;;;8.43;4.43;;;6.70;99.90;;;;;;5096241;28;20276;-68
2022/11/27 04:24:03;;;;;;;8.47;4.60;;;6.70;99.90;;;;;;5092091;28;20213;-68
2022/11/27 04:26:29;;;;;;;8.80;4.77;;;6.70;99.90;;;;;;5100800;28;20169;-69
2022/11/27 04:28:54;;;;;;;7.97;4.53;;;6.70;99.90;;;;;;5094767;28;20184;-69
2022/11/27 04:31:20;;;;;;;7.17;4.43;;;6.80;99.90;;;;;;5095870;28;20271;-69
2022/11/27 04:33:48;;;;;;;8.07;4.50;;;6.80;99.90;;;;;;5057778;28;20184;-69
2022/11/27 04:36:16;;;;;;;7.10;4.93;;;6.80;99.90;;;;;;5098820;28;20311;-69
2022/11/27 04:38:42;;;;;;;8.50;5.10;;;6.90;99.90;;;;;;5097131;28;20195;-69
2022/11/27 04:41:07;;;;;;;8.80;5.13;;;6.80;99.90;;;;;;5093515;28;20192;-69
2022/11/27 04:43:35;;;;;;;6.80;4.53;;;6.80;99.90;;;;;;5058923;28;20200;-69
2022/11/27 04:46:01;;;;;;;9.80;4.80;;;6.80;99.90;;;;;;5058898;28;20242;-69
2022/11/27 04:48:27;;;;;;;5.90;4.67;;;6.80;99.90;;;;;;5092156;28;20193;-69
2022/11/27 04:50:54;;;;;;;8.27;4.90;;;6.90;99.90;;;;;;5097734;28;20177;-69
2022/11/27 04:53:19;;;;;;;7.03;4.10;;;6.80;99.90;;;;;;5094970;28;20180;-69
2022/11/27 04:55:45;;;;;;;8.30;4.40;;;6.80;99.90;;;;;;5093247;28;20224;-69
2022/11/27 04:58:14;;;;;;;7.43;4.30;;;6.80;99.90;;;;;;5093758;28;20191;-69
2022/11/27 05:00:41;;;;;;;6.80;4.80;;;6.90;99.90;;;;;;5059749;28;20177;-70
2022/11/27 05:03:07;;;;;;;6.53;4.23;;;6.80;99.90;;;;;;5076582;28;20235;-69
2022/11/27 05:05:37;;;;;;;6.23;4.13;;;6.80;99.90;;;;;;5093606;28;20180;-68
2022/11/27 05:08:03;;;;;;;6.90;4.07;;;6.90;99.90;;;;;;5066858;28;20184;-68
2022/11/27 05:10:31;;;;;;;5.07;3.90;;;6.90;99.90;;;;;;5095850;28;20190;-69
2022/11/27 05:12:59;;;;;;;6.03;3.77;;;6.90;99.90;;;;;;5089635;28;20267;-68
2022/11/27 05:15:24;;;;;;;5.57;3.70;;;6.90;99.90;;;;;;5058893;28;20191;-68
2022/11/27 05:17:52;;;;;;;6.23;3.70;;;6.90;99.90;;;;;;5055501;28;20184;-68
2022/11/27 05:20:20;;;;;;;6.10;4.00;;;6.90;99.90;;;;;;5075716;28;20181;-68
2022/11/27 05:22:47;;;;;;;6.53;4.20;;;6.90;99.90;;;;;;5092562;28;20201;-69
2022/11/27 05:25:12;;;;;;;6.50;4.00;;;6.90;99.90;;;;;;5059375;28;20237;-68
2022/11/27 05:27:42;;;;;;;5.53;3.87;;;6.90;99.90;;;;;;5060414;28;20180;-69
2022/11/27 05:30:08;;;;;;;5.27;3.30;;;6.90;99.90;;;;;;5090342;28;20221;-69
2022/11/27 05:32:36;;;;;;;6.30;4.07;;;6.90;99.90;;;;;;5093344;28;20172;-68
2022/11/27 05:35:07;;;;;;;6.10;3.57;;;6.90;99.90;;;;;;5092277;28;20222;-69
2022/11/27 05:37:34;;;;;;;4.80;3.40;;;6.90;99.90;;;;;;5092148;28;20172;-69
2022/11/27 05:40:02;;;;;;;6.60;3.37;;;6.90;99.90;;;;;;5057631;28;20191;-69
2022/11/27 05:42:28;;;;;;;4.97;3.60;;;6.90;99.90;;;;;;5095500;28;20227;-73
2022/11/27 05:44:53;;;;;;;4.13;3.20;;;6.90;99.90;;;;;;5090107;28;20192;-75
2022/11/27 05:47:21;;;;;;;5.50;2.93;;;6.90;99.90;;;;;;5093647;28;20188;-74
2022/11/27 05:49:49;;;;;;;3.93;2.80;;;7.00;99.90;;;;;;5094589;28;20199;-73
2022/11/27 05:52:19;;;;;;;6.93;3.60;;;6.90;99.90;;;;;;5101478;28;20172;-73
2022/11/27 05:54:45;;;;;;;5.47;3.80;;;6.90;99.90;;;;;;5094374;28;20180;-75
2022/11/27 05:57:10;;;;;;;4.17;3.10;;;7.00;99.90;;;;;;5095532;28;20494;-74
2022/11/27 05:59:38;;;;;;;5.00;3.27;;;6.90;99.90;;;;;;5094827;28;20191;-75
2022/11/27 06:02:04;;;;;;;4.27;3.30;;;7.00;99.90;;;;;;5092429;28;20194;-75
2022/11/27 06:04:34;;;;;;;5.27;3.03;;;7.10;99.90;;;;;;5092499;28;20196;-73
2022/11/27 06:07:00;;;;;;;4.73;3.30;;;7.00;99.90;;;;;;5057235;28;20174;-73
2022/11/27 06:09:26;;;;;;;5.07;3.43;;;7.00;99.90;;;;;;5089003;28;20181;-76
2022/11/27 06:11:51;;;;;;;6.10;3.20;;;7.00;99.90;;;;;;5092158;28;20263;-73
2022/11/27 06:14:22;;;;;;;5.10;3.37;;;7.00;99.90;;;;;;5090844;28;20188;-74
2022/11/27 06:16:47;;;;;;;4.10;2.90;;;7.00;99.90;;;;;;5094894;28;20188;-77
2022/11/27 06:19:13;;;;;;;3.57;3.03;;;7.00;99.90;;;;;;5091522;28;20188;-75
2022/11/27 06:21:41;;;;;;;5.50;3.30;;;7.10;99.90;;;;;;5088297;28;20501;-74
2022/11/27 06:24:07;;;;;;;4.57;3.07;;;7.00;99.90;;;;;;5090248;28;20208;-74
2022/11/27 06:26:33;;;;;;;4.07;2.87;;;7.00;99.90;;;;;;5056822;28;20172;-75
2022/11/27 06:29:00;;;;;;;4.47;3.00;;;7.10;99.90;;;;;;5092450;28;20176;-74
2022/11/27 06:31:30;;;;;;;4.97;3.07;;;7.10;99.90;;;;;;5059194;28;20204;-74
2022/11/27 06:33:56;;;;;;;4.23;2.80;;;7.10;99.90;;;;;;5058131;28;20181;-77
2022/11/27 06:36:28;;;;;;;5.07;3.10;;;7.10;99.90;;;;;;5058115;28;20292;-76
2022/11/27 06:38:54;;;;;;;4.30;2.97;;;7.20;99.90;;;;;;5088550;28;20206;-75
2022/11/27 06:41:25;;;;;;;6.60;3.03;;;7.10;99.90;;;;;;5092398;28;20272;-76
2022/11/27 06:43:51;;;;;;;5.07;2.87;;;7.20;99.90;;;;;;5092508;28;20292;-76
2022/11/27 06:46:22;;;;;;;4.03;3.20;;;7.20;99.90;;;;;;5070569;28;20189;-76
2022/11/27 06:48:52;;;;;;;5.67;3.37;;;7.20;99.90;;;;;;5089702;28;20184;-74
2022/11/27 06:51:22;;;;;;;5.07;3.00;;;7.30;99.90;;;;;;5088871;28;20173;-75
2022/11/27 06:53:51;;;;;;;4.87;3.00;;;7.20;99.90;;;;;;5096824;28;20180;-76
2022/11/27 06:56:20;;;;;;;5.80;3.70;;;7.20;99.90;;;;;;5091260;28;20246;-76
2022/11/27 06:58:50;;;;;;;5.77;3.70;;;7.30;99.90;;;;;;5091949;28;20275;-76
2022/11/27 07:01:16;;;;;;;5.90;3.13;;;7.30;99.90;;;;;;5063178;28;20233;-75
2022/11/27 07:03:43;;;;;;;5.07;3.20;;;7.30;99.90;;;;;;5057953;28;20242;-75
2022/11/27 07:06:10;;;;;;;4.50;3.27;;;7.40;99.90;;;;;;5095769;28;20180;-76
2022/11/27 07:08:36;;;;;;;4.00;2.83;;;7.40;99.90;;;;;;5096719;28;20242;-76
2022/11/27 07:11:10;;;;;;;4.47;3.20;;;7.30;99.90;;;;;;5091424;28;20176;-74
2022/11/27 07:13:35;;;;;;;5.20;2.90;;;7.40;99.90;;;;;;5091121;28;20180;-77
2022/11/27 07:16:07;;;;;;;5.57;3.00;;;7.40;99.90;;;;;;5091917;28;20188;-75
2022/11/27 07:18:38;;;;;;;5.17;2.93;;;7.40;99.90;;;;;;5094233;28;20195;-75
2022/11/27 07:21:04;;;;;;;5.33;2.90;;;7.50;99.90;;;;;;5097250;28;20180;-75
2022/11/27 07:23:29;;;;;;;5.87;2.73;;;7.40;99.90;;;;;;5093207;28;20219;-76
2022/11/27 07:25:56;;;;;;;4.00;2.90;;;7.50;99.90;;;;;;5094053;28;20184;-76
2022/11/27 07:28:22;;;;;;;5.53;3.20;;;7.50;99.90;;;;;;5096923;28;20176;-77
2022/11/27 07:30:57;;;;;;;4.20;2.80;;;7.60;99.90;;;;;;5078868;28;20257;-75
2022/11/27 07:33:24;;;;;;;5.20;2.70;;;7.50;99.90;;;;;;5094379;28;20247;-75
2022/11/27 07:35:56;;;;;;;4.23;2.90;;;7.50;99.90;;;;;;5095453;28;20813;-77
2022/11/27 07:38:21;;;;;;;4.47;2.70;;;7.50;99.90;;;;;;5062269;28;20215;-76
2022/11/27 07:40:47;;;;;;;7.37;3.37;;;7.60;99.90;;;;;;5094087;28;20192;-78
2022/11/27 07:43:13;;;;;;;4.20;2.73;;;7.60;99.90;;;;;;5094033;28;20204;-77
2022/11/27 07:45:43;;;;;;;5.17;2.87;;;7.60;99.90;;;;;;5090576;28;20214;-75
2022/11/27 07:48:08;;;;;;;4.70;2.93;;;7.80;99.90;;;;;;5091590;28;20176;-75
2022/11/27 07:50:34;;;;;;;5.23;3.10;;;7.60;99.90;;;;;;5093087;28;20191;-77
2022/11/27 07:53:02;;;;;;;4.70;2.67;;;7.70;99.90;;;;;;5095312;28;20264;-76
2022/11/27 07:55:30;;;;;;;4.00;3.10;;;7.70;99.90;;;;;;5092301;28;20223;-74
2022/11/27 07:57:55;;;;;;;6.37;3.10;;;7.70;99.90;;;;;;5094299;28;20215;-78
2022/11/27 08:00:21;;;;;;;5.10;3.43;;;7.80;99.90;;;;;;5057728;28;20188;-76
2022/11/27 08:02:47;;;;;;;4.60;3.17;;;7.70;99.90;;;;;;5061894;28;20197;-79
2022/11/27 08:05:15;;;;;;;4.33;3.20;;;8.10;99.90;;;;;;5090523;28;20220;-77
2022/11/27 08:07:40;;;;;;;3.80;2.97;;;7.80;99.90;;;;;;5062848;28;20191;-74
2022/11/27 08:10:11;;;;;;;5.67;3.50;;;7.80;99.90;;;;;;5102027;28;20179;-78
2022/11/27 08:12:36;;;;;;;6.43;3.80;;;7.90;99.90;;;;;;5062488;28;20193;-76
2022/11/27 08:15:04;;;;;;;6.40;3.20;;;7.90;99.90;;;;;;5096549;28;20191;-75
2022/11/27 08:17:30;;;;;;;5.17;3.40;;;7.90;99.90;;;;;;5099673;28;20271;-76
2022/11/27 08:19:56;;;;;;;6.90;3.57;;;7.90;99.90;;;;;;5094434;28;20226;-77
2022/11/27 08:22:21;;;;;;;4.70;3.53;;;7.90;99.90;;;;;;5102071;28;20263;-77
2022/11/27 08:24:52;;;;;;;10.13;4.13;;;8.00;99.90;;;;;;5099923;28;20246;-77
2022/11/27 08:27:20;;;;;;;5.47;3.60;;;8.00;99.90;;;;;;5095533;28;20215;-77
2022/11/27 08:29:46;;;;;;;5.93;4.00;;;8.10;99.90;;;;;;5093980;28;20196;-77
2022/11/27 08:32:11;;;;;;;7.00;3.90;;;8.00;99.90;;;;;;5097740;28;20255;-76
2022/11/27 08:34:39;;;;;;;5.53;3.80;;;8.10;99.90;;;;;;5094156;28;20192;-77
2022/11/27 08:37:08;;;;;;;6.63;3.57;;;8.10;99.90;;;;;;5096504;28;20192;-78
2022/11/27 08:39:36;;;;;;;7.30;3.53;;;8.30;99.90;;;;;;5078128;28;20268;-77
2022/11/27 08:42:04;;;;;;;5.70;4.03;;;8.10;99.90;;;;;;5064078;28;20187;-77
2022/11/27 08:44:29;;;;;;;6.43;3.80;;;8.20;99.90;;;;;;5061895;28;21130;-76
2022/11/27 08:46:57;;;;;;;5.20;3.70;;;8.20;99.90;;;;;;5094929;28;20203;-76
2022/11/27 08:49:28;;;;;;;4.43;3.60;;;8.20;99.90;;;;;;5097798;28;20173;-76
2022/11/27 08:51:53;;;;;;;4.97;3.80;;;8.30;99.90;;;;;;5092432;28;20180;-78
2022/11/27 08:54:19;;;;;;;4.27;3.53;;;8.40;99.90;;;;;;5096712;28;20180;-77
2022/11/27 08:56:44;;;;;;;5.37;3.70;;;8.30;99.90;;;;;;5096517;28;20180;-77
2022/11/27 08:59:10;;;;;;;6.90;3.60;;;8.40;99.90;;;;;;5061487;28;20192;-76
2022/11/27 09:01:36;;;;;;;6.93;3.70;;;8.40;99.90;;;;;;5081219;28;20214;-76
2022/11/27 09:04:06;;;;;;;4.63;3.13;;;8.40;99.90;;;;;;5062436;28;20216;-76
2022/11/27 09:06:35;;;;;;;5.63;3.23;;;8.50;99.90;;;;;;5096741;28;20264;-77
2022/11/27 09:09:04;;;;;;;4.00;3.40;;;8.60;99.90;;;;;;5092505;28;20991;-76
2022/11/27 09:11:30;;;;;;;4.80;3.40;;;8.60;99.90;;;;;;5096008;28;20782;-77
2022/11/27 09:13:58;;;;;;;5.67;3.10;;;8.60;99.90;;;;;;5094757;28;20192;-76
2022/11/27 09:16:24;;;;;;;3.37;2.93;;;8.60;99.90;;;;;;5094053;28;20188;-76
2022/11/27 09:18:51;;;;;;;4.63;2.77;;;8.70;99.90;;;;;;5093985;28;20180;-77
2022/11/27 09:21:21;;;;;;;5.37;2.93;;;8.70;99.90;;;;;;5095396;28;20192;-78
2022/11/27 09:23:52;;;;;;;4.17;3.13;;;8.80;99.90;;;;;;5062314;28;20276;-76
2022/11/27 09:26:18;;;;;;;3.80;2.70;;;8.80;99.90;;;;;;5091222;28;20185;-78
2022/11/27 09:28:44;;;;;;;4.70;2.90;;;9.00;99.90;;;;;;5091319;28;20271;-77
2022/11/27 09:31:14;;;;;;;5.00;3.50;;;9.00;99.90;;;;;;5091578;28;20275;-76
2022/11/27 09:33:43;;;;;;;4.20;3.07;;;9.00;99.90;;;;;;5094483;28;20191;-76
2022/11/27 09:36:14;;;;;;;5.07;3.40;;;9.00;99.90;;;;;;5089670;28;20220;-76
2022/11/27 09:38:41;;;;;;;3.93;3.00;;;9.00;99.90;;;;;;5100792;28;20198;-77
2022/11/27 09:41:18;;;;;;;5.67;3.30;;;9.10;99.90;;;;;;5094902;28;20324;-77
2022/11/27 09:43:55;;;;;;;5.43;3.83;;;9.10;99.90;;;;;;5064748;28;20295;-77
2022/11/27 09:46:41;;;;;;;5.60;4.00;;;9.10;99.90;;;;;;5064193;28;20176;-77
2022/11/27 09:49:12;;;;;;;5.60;4.20;;;9.20;99.90;;;;;;5095602;28;20181;-76
2022/11/27 09:51:53;;;;;;;6.40;4.50;;;9.20;99.90;;;;;;5093934;28;20191;-76
2022/11/27 09:54:36;;;;;;;7.73;4.40;;;9.20;99.90;;;;;;5060885;28;20226;-77
2022/11/27 09:57:02;;;;;;;7.70;5.00;;;9.30;99.90;;;;;;5092111;28;20186;-77
2022/11/27 09:59:51;;;;;;;8.63;4.93;;;9.30;99.90;;;;;;5097922;28;20181;-76
2022/11/27 10:02:22;;;;;;;6.17;4.67;;;9.40;99.90;;;;;;5096326;28;20271;-75
2022/11/27 10:04:50;;;;;;;6.83;5.07;;;9.50;99.90;;;;;;5094070;28;20223;-74
2022/11/27 10:07:37;;;;;;;7.37;5.37;;;9.60;99.90;;;;;;5061603;28;20197;-76
2022/11/27 10:10:30;;;;;;;6.30;4.87;;;9.60;99.90;;;;;;5062382;28;20184;-77
2022/11/27 10:13:17;;;;;;;7.15;4.72;;;9.70;99.90;;;;;;5057449;28;20195;-76
2022/11/27 10:16:15;;;;;;;6.95;4.85;;;9.90;99.90;;;;;;5090230;28;20471;-76
2022/11/27 10:18:50;;;;;;;12.00;5.22;;;10.00;99.90;;;;;;5039135;28;20199;-76
2022/11/27 10:21:37;;;;;;;8.13;5.38;;;10.20;99.90;;;;;;5059048;28;20172;-75
2022/11/27 10:24:09;;;;;;;7.07;4.95;;;10.30;99.90;;;;;;5093335;28;20200;-75
2022/11/27 10:26:44;;;;;;;6.63;4.93;;;10.50;99.90;;;;;;5063510;28;20180;-74
2022/11/27 10:29:29;;;;;;;6.78;4.43;;;10.50;99.90;;;;;;5092198;28;20182;-75
2022/11/27 10:32:02;;;;;;;6.90;4.80;;;10.60;99.90;;;;;;5091078;28;20176;-76
2022/11/27 10:34:46;;;;;;;7.70;4.65;;;10.70;99.90;;;;;;5061379;28;20188;-75
2022/11/27 10:37:23;;;;;;;7.82;4.75;;;10.70;99.90;;;;;;5061534;28;20241;-75
2022/11/27 10:40:05;;;;;;;8.30;4.68;;;10.70;99.90;;;;;;5070402;28;20206;-75
2022/11/27 10:42:55;;;;;;;6.90;4.60;;;10.80;99.90;;;;;;5094255;28;20192;-75
2022/11/27 10:45:23;;;;;;;6.15;4.15;;;10.70;99.90;;;;;;5090203;28;20190;-75
2022/11/27 10:47:52;;;;;;;6.22;4.28;;;10.80;99.90;;;;;;5093218;28;20180;-76
2022/11/27 10:50:19;;;;;;;5.50;4.05;;;10.70;99.90;;;;;;5091105;28;20212;-75
2022/11/27 10:53:03;;;;;;;4.85;3.67;;;10.70;99.90;;;;;;5091050;28;20185;-74
2022/11/27 10:56:02;;;;;;;5.53;3.95;;;10.60;99.90;;;;;;5059004;28;20188;-76
2022/11/27 10:58:58;;;;;;;4.85;3.70;;;10.60;99.90;;;;;;5062209;28;20189;-75
2022/11/27 11:01:25;;;;;;;5.13;3.30;;;10.60;99.90;;;;;;5092004;28;20191;-75
2022/11/27 11:04:04;;;;;;;4.10;3.47;;;10.60;99.90;;;;;;5059159;28;20235;-76
2022/11/27 11:06:32;;;;;;;5.10;3.50;;;10.60;99.90;;;;;;5095548;28;20176;-75
2022/11/27 11:09:30;;;;;;;4.65;3.55;;;10.60;99.90;;;;;;5091019;28;20260;-75
2022/11/27 11:12:17;;;;;;;4.25;3.30;;;10.60;99.90;;;;;;5058137;28;20195;-75
2022/11/27 11:14:59;;;;;;;5.95;3.45;;;10.60;99.90;;;;;;5058717;28;20188;-76
2022/11/27 11:17:36;;;;;;;7.07;3.83;;;10.60;99.90;;;;;;5091265;28;20222;-76
2022/11/27 11:20:34;;;;;;;5.40;3.72;;;10.60;99.90;;;;;;5057031;28;20180;-75
2022/11/27 11:23:00;;;;;;;5.25;3.03;;;10.60;99.90;;;;;;5038306;28;20349;-75
2022/11/27 11:25:26;;;;;;;5.50;3.72;;;10.60;99.90;;;;;;5093715;28;20200;-75
2022/11/27 11:27:51;;;;;;;5.45;3.60;;;10.70;99.90;;;;;;5092152;28;20202;-75
2022/11/27 11:30:27;;;;;;;5.38;3.58;;;10.70;99.90;;;;;;5060921;28;20181;-76
2022/11/27 11:33:00;;;;;;;5.22;3.50;;;10.70;99.90;;;;;;5093701;28;20190;-77
2022/11/27 11:35:37;;;;;;;5.68;3.63;;;10.80;99.90;;;;;;5058523;28;20191;-74
2022/11/27 11:38:15;;;;;;;4.53;3.22;;;10.80;99.90;;;;;;5091772;28;20199;-75
2022/11/27 11:40:44;;;;;;;4.43;2.88;;;10.80;99.90;;;;;;5057715;28;20196;-77
2022/11/27 11:43:25;;;;;;;5.47;3.50;;;10.80;99.90;;;;;;5062630;28;20208;-76
2022/11/27 11:45:50;;;;;;;3.90;3.05;;;10.80;99.90;;;;;;5098007;28;20186;-76
2022/11/27 11:48:26;;;;;;;5.50;3.08;;;10.90;99.90;;;;;;5098322;28;20259;-75
2022/11/27 11:51:03;;;;;;;5.30;2.95;;;10.90;99.90;;;;;;5103876;28;20180;-77
2022/11/27 11:53:44;;;;;;;4.47;2.95;;;10.80;99.90;;;;;;5092460;28;20192;-75
2022/11/27 11:56:28;;;;;;;5.30;3.05;;;10.90;99.90;;;;;;5096145;28;20180;-76
2022/11/27 11:59:07;;;;;;;6.43;3.50;;;10.90;99.90;;;;;;5058343;28;20262;-76
2022/11/27 12:01:53;;;;;;;6.03;3.58;;;10.80;99.90;;;;;;5097201;28;20184;-75
2022/11/27 12:04:47;;;;;;;3.80;3.13;;;10.80;99.90;;;;;;5063867;28;20282;-80
2022/11/27 12:07:28;;;;;;;5.13;3.33;;;10.80;99.90;;;;;;5061656;28;20256;-78
2022/11/27 12:10:02;;;;;;;5.43;3.38;;;10.80;99.90;;;;;;5069193;28;20382;-79
2022/11/27 12:12:48;;;;;;;5.03;3.20;;;10.80;99.90;;;;;;5062357;28;20190;-79
2022/11/27 12:15:25;;;;;;;7.03;3.22;;;10.80;99.90;;;;;;5093044;28;20180;-82
2022/11/27 12:18:01;;;;;;;5.43;3.17;;;10.80;99.90;;;;;;5062784;28;20176;-83
2022/11/27 12:20:43;;;;;;;4.65;3.00;;;10.80;99.90;;;;;;5060500;28;20185;-81
2022/11/27 12:23:49;;;;;;;5.50;3.30;;;10.80;99.90;;;;;;5099706;28;20196;-81
2022/11/27 12:26:32;;;;;;;6.18;3.75;;;10.80;99.90;;;;;;5062159;28;20173;-80
2022/11/27 12:29:22;;;;;;;5.60;3.38;;;10.80;99.90;;;;;;5095954;28;20279;-82
2022/11/27 12:31:55;;;;;;;6.72;3.63;;;10.80;99.90;;;;;;5094475;28;20325;-83
2022/11/27 12:34:57;;;;;;;5.15;3.22;;;10.80;99.90;;;;;;5061555;28;20192;-77
2022/11/27 12:37:56;;;;;;;5.78;3.33;;;10.80;99.90;;;;;;5060646;28;20184;-73
2022/11/27 12:40:31;;;;;;;5.57;3.35;;;10.80;99.90;;;;;;5060468;28;20277;-74
2022/11/27 12:43:22;;;;;;;3.53;3.00;;;10.80;99.90;;;;;;5095234;28;20210;-79
2022/11/27 12:46:39;;;;;;;4.80;3.30;;;10.80;99.90;;;;;;5094002;28;20233;-79
2022/11/27 12:49:26;;;;;;;4.25;3.08;;;10.80;99.90;;;;;;5022040;28;20252;-78
2022/11/27 12:52:21;;;;;;;3.75;2.90;;;10.80;99.90;;;;;;5060395;28;20175;-81
2022/11/27 12:54:54;;;;;;;5.28;3.05;;;10.80;99.90;;;;;;5049711;28;20180;-83
2022/11/27 12:57:38;;;;;;;3.60;2.83;;;10.80;99.90;;;;;;5088357;28;20196;-75
2022/11/27 13:00:23;;;;;;;4.75;3.05;;;10.70;99.90;;;;;;5093167;28;21632;-80
2022/11/27 13:03:01;;;;;;;4.78;2.90;;;10.70;99.90;;;;;;5094656;28;20180;-80
2022/11/27 13:05:35;;;;;;;4.47;3.10;;;10.70;99.90;;;;;;5094575;28;20176;-72
2022/11/27 13:08:11;;;;;;;5.28;3.33;;;10.70;99.90;;;;;;5094581;28;20173;-74
2022/11/27 13:10:51;;;;;;;4.85;2.83;;;10.70;99.90;;;;;;5090958;28;20247;-80
2022/11/27 13:13:53;;;;;;;5.07;3.10;;;10.70;99.90;;;;;;5066786;28;20179;-80
2022/11/27 13:16:57;;;;;;;5.60;3.10;;;10.70;99.90;;;;;;5061180;28;20321;-75
2022/11/27 13:19:34;;;;;;;4.35;2.92;;;10.70;99.90;;;;;;5042563;28;20184;-75
2022/11/27 13:22:04;;;;;;;4.38;3.00;;;10.70;99.90;;;;;;5095853;28;20194;-78